sensor_id;sensor_type;location;lat;lon;timestamp;P1;durP1;ratioP1;P2;durP2;ratioP2
42124;SDS011;27787;44.594;11.046;2024-02-04T00:00:07;24.95;;;11.38;;
42124;SDS011;27787;44.594;11.046;2024-02-04T00:02:55;23.83;;;10.98;;
42124;SDS011;27787;44.594;11.046;2024-02-04T00:05:39;22.92;;;11.35;;
42124;SDS011;27787;44.594;11.046;2024-02-04T00:08:23;23.48;;;11.60;;
42124;SDS011;27787;44.594;11.046;2024-02-04T00:11:07;27.45;;;11.27;;
42124;SDS011;27787;44.594;11.046;2024-02-04T00:13:55;24.95;;;11.90;;
42124;SDS011;27787;44.594;11.046;2024-02-04T00:16:40;27.38;;;10.85;;
42124;SDS011;27787;44.594;11.046;2024-02-04T00:19:24;28.05;;;12.00;;
42124;SDS011;27787;44.594;11.046;2024-02-04T00:22:08;26.23;;;12.70;;
42124;SDS011;27787;44.594;11.046;2024-02-04T00:24:53;25.70;;;13.25;;
42124;SDS011;27787;44.594;11.046;2024-02-04T00:27:37;31.02;;;13.32;;
42124;SDS011;27787;44.594;11.046;2024-02-04T00:30:22;30.20;;;13.32;;
42124;SDS011;27787;44.594;11.046;2024-02-04T00:33:06;27.20;;;12.73;;
42124;SDS011;27787;44.594;11.046;2024-02-04T00:35:50;28.73;;;11.98;;
42124;SDS011;27787;44.594;11.046;2024-02-04T00:38:35;27.48;;;12.38;;
42124;SDS011;27787;44.594;11.046;2024-02-04T00:41:20;27.42;;;12.68;;
42124;SDS011;27787;44.594;11.046;2024-02-04T00:44:03;27.55;;;12.98;;
42124;SDS011;27787;44.594;11.046;2024-02-04T00:46:48;27.05;;;12.40;;
42124;SDS011;27787;44.594;11.046;2024-02-04T00:49:32;28.80;;;13.38;;
42124;SDS011;27787;44.594;11.046;2024-02-04T00:52:16;29.50;;;12.43;;
42124;SDS011;27787;44.594;11.046;2024-02-04T00:55:00;28.83;;;11.98;;
42124;SDS011;27787;44.594;11.046;2024-02-04T00:57:45;31.35;;;12.30;;
42124;SDS011;27787;44.594;11.046;2024-02-04T01:00:29;23.38;;;11.20;;
42124;SDS011;27787;44.594;11.046;2024-02-04T01:03:14;32.17;;;13.43;;
42124;SDS011;27787;44.594;11.046;2024-02-04T01:05:58;34.90;;;13.63;;
42124;SDS011;27787;44.594;11.046;2024-02-04T01:08:42;30.38;;;13.77;;
42124;SDS011;27787;44.594;11.046;2024-02-04T01:11:26;32.15;;;13.55;;
42124;SDS011;27787;44.594;11.046;2024-02-04T01:14:11;35.13;;;13.65;;
42124;SDS011;27787;44.594;11.046;2024-02-04T01:16:55;37.15;;;15.15;;
42124;SDS011;27787;44.594;11.046;2024-02-04T01:19:38;32.38;;;14.20;;
42124;SDS011;27787;44.594;11.046;2024-02-04T01:22:23;30.08;;;14.60;;
42124;SDS011;27787;44.594;11.046;2024-02-04T01:25:10;33.22;;;13.85;;
42124;SDS011;27787;44.594;11.046;2024-02-04T01:27:54;33.40;;;14.15;;
42124;SDS011;27787;44.594;11.046;2024-02-04T01:30:39;33.45;;;15.65;;
42124;SDS011;27787;44.594;11.046;2024-02-04T01:33:23;31.52;;;13.45;;
42124;SDS011;27787;44.594;11.046;2024-02-04T01:36:07;32.33;;;14.38;;
42124;SDS011;27787;44.594;11.046;2024-02-04T01:38:52;33.35;;;15.32;;
42124;SDS011;27787;44.594;11.046;2024-02-04T01:41:36;35.15;;;14.80;;
42124;SDS011;27787;44.594;11.046;2024-02-04T01:44:21;34.13;;;15.23;;
42124;SDS011;27787;44.594;11.046;2024-02-04T01:47:06;37.37;;;16.53;;
42124;SDS011;27787;44.594;11.046;2024-02-04T01:49:51;34.83;;;15.48;;
42124;SDS011;27787;44.594;11.046;2024-02-04T01:52:36;36.50;;;15.65;;
42124;SDS011;27787;44.594;11.046;2024-02-04T01:55:23;35.13;;;15.20;;
42124;SDS011;27787;44.594;11.046;2024-02-04T01:58:07;36.65;;;15.10;;
42124;SDS011;27787;44.594;11.046;2024-02-04T02:00:52;30.20;;;15.20;;
42124;SDS011;27787;44.594;11.046;2024-02-04T02:03:36;37.40;;;15.23;;
42124;SDS011;27787;44.594;11.046;2024-02-04T02:09:07;33.70;;;13.85;;
42124;SDS011;27787;44.594;11.046;2024-02-04T02:12:07;30.17;;;13.68;;
42124;SDS011;27787;44.594;11.046;2024-02-04T02:15:00;30.88;;;13.63;;
42124;SDS011;27787;44.594;11.046;2024-02-04T02:17:51;30.45;;;14.73;;
42124;SDS011;27787;44.594;11.046;2024-02-04T02:26:53;32.97;;;13.75;;
42124;SDS011;27787;44.594;11.046;2024-02-04T02:29:40;31.05;;;12.13;;
42124;SDS011;27787;44.594;11.046;2024-02-04T02:32:24;29.58;;;12.68;;
42124;SDS011;27787;44.594;11.046;2024-02-04T02:35:09;25.45;;;11.70;;
42124;SDS011;27787;44.594;11.046;2024-02-04T02:41:03;24.30;;;11.05;;
42124;SDS011;27787;44.594;11.046;2024-02-04T02:43:50;25.10;;;11.90;;
42124;SDS011;27787;44.594;11.046;2024-02-04T02:46:35;26.67;;;11.38;;
42124;SDS011;27787;44.594;11.046;2024-02-04T02:49:21;25.38;;;12.20;;
42124;SDS011;27787;44.594;11.046;2024-02-04T02:52:05;29.80;;;12.65;;
42124;SDS011;27787;44.594;11.046;2024-02-04T02:54:49;23.05;;;12.57;;
42124;SDS011;27787;44.594;11.046;2024-02-04T02:57:34;28.30;;;12.23;;
42124;SDS011;27787;44.594;11.046;2024-02-04T03:00:18;27.83;;;13.82;;
42124;SDS011;27787;44.594;11.046;2024-02-04T03:03:02;33.67;;;11.77;;
42124;SDS011;27787;44.594;11.046;2024-02-04T03:05:46;25.55;;;10.23;;
42124;SDS011;27787;44.594;11.046;2024-02-04T03:08:31;27.80;;;10.98;;
42124;SDS011;27787;44.594;11.046;2024-02-04T03:11:15;22.48;;;9.88;;
42124;SDS011;27787;44.594;11.046;2024-02-04T03:14:00;24.25;;;10.02;;
42124;SDS011;27787;44.594;11.046;2024-02-04T03:16:44;26.92;;;12.27;;
42124;SDS011;27787;44.594;11.046;2024-02-04T03:19:29;29.05;;;11.50;;
42124;SDS011;27787;44.594;11.046;2024-02-04T03:22:12;26.25;;;12.05;;
42124;SDS011;27787;44.594;11.046;2024-02-04T03:24:57;23.63;;;11.45;;
42124;SDS011;27787;44.594;11.046;2024-02-04T03:27:42;34.53;;;13.75;;
42124;SDS011;27787;44.594;11.046;2024-02-04T03:30:26;24.10;;;11.23;;
42124;SDS011;27787;44.594;11.046;2024-02-04T03:33:10;29.48;;;11.95;;
42124;SDS011;27787;44.594;11.046;2024-02-04T03:35:54;26.90;;;11.55;;
42124;SDS011;27787;44.594;11.046;2024-02-04T03:38:39;29.27;;;11.90;;
42124;SDS011;27787;44.594;11.046;2024-02-04T03:41:24;32.25;;;12.93;;
42124;SDS011;27787;44.594;11.046;2024-02-04T03:44:09;25.37;;;11.37;;
42124;SDS011;27787;44.594;11.046;2024-02-04T03:46:53;27.73;;;11.63;;
42124;SDS011;27787;44.594;11.046;2024-02-04T03:49:37;24.30;;;11.00;;
42124;SDS011;27787;44.594;11.046;2024-02-04T03:52:21;23.20;;;10.95;;
42124;SDS011;27787;44.594;11.046;2024-02-04T03:55:06;30.00;;;12.88;;
42124;SDS011;27787;44.594;11.046;2024-02-04T03:57:51;29.77;;;12.82;;
42124;SDS011;27787;44.594;11.046;2024-02-04T04:00:35;25.17;;;11.67;;
42124;SDS011;27787;44.594;11.046;2024-02-04T04:03:19;24.85;;;11.68;;
42124;SDS011;27787;44.594;11.046;2024-02-04T04:06:03;29.67;;;12.57;;
42124;SDS011;27787;44.594;11.046;2024-02-04T04:08:48;24.67;;;11.55;;
42124;SDS011;27787;44.594;11.046;2024-02-04T04:11:32;27.52;;;12.48;;
42124;SDS011;27787;44.594;11.046;2024-02-04T04:14:16;29.48;;;13.20;;
42124;SDS011;27787;44.594;11.046;2024-02-04T04:17:01;24.00;;;12.30;;
42124;SDS011;27787;44.594;11.046;2024-02-04T04:19:45;28.55;;;12.00;;
42124;SDS011;27787;44.594;11.046;2024-02-04T04:22:29;26.33;;;13.05;;
42124;SDS011;27787;44.594;11.046;2024-02-04T04:25:13;26.92;;;12.02;;
42124;SDS011;27787;44.594;11.046;2024-02-04T04:27:58;29.52;;;11.90;;
42124;SDS011;27787;44.594;11.046;2024-02-04T04:30:43;27.70;;;12.02;;
42124;SDS011;27787;44.594;11.046;2024-02-04T04:33:26;26.00;;;11.27;;
42124;SDS011;27787;44.594;11.046;2024-02-04T04:36:10;27.77;;;12.57;;
42124;SDS011;27787;44.594;11.046;2024-02-04T04:38:54;27.08;;;11.38;;
42124;SDS011;27787;44.594;11.046;2024-02-04T04:41:43;23.08;;;11.50;;
42124;SDS011;27787;44.594;11.046;2024-02-04T04:44:28;26.23;;;11.02;;
42124;SDS011;27787;44.594;11.046;2024-02-04T04:47:12;27.80;;;11.20;;
42124;SDS011;27787;44.594;11.046;2024-02-04T04:49:56;22.73;;;10.82;;
42124;SDS011;27787;44.594;11.046;2024-02-04T04:52:40;23.77;;;10.68;;
42124;SDS011;27787;44.594;11.046;2024-02-04T04:55:24;23.23;;;10.82;;
42124;SDS011;27787;44.594;11.046;2024-02-04T04:58:09;26.90;;;11.40;;
42124;SDS011;27787;44.594;11.046;2024-02-04T05:00:53;30.45;;;11.82;;
42124;SDS011;27787;44.594;11.046;2024-02-04T05:03:37;22.83;;;11.32;;
42124;SDS011;27787;44.594;11.046;2024-02-04T05:06:21;22.70;;;9.65;;
42124;SDS011;27787;44.594;11.046;2024-02-04T05:09:06;21.58;;;10.00;;
42124;SDS011;27787;44.594;11.046;2024-02-04T05:11:50;26.63;;;10.77;;
42124;SDS011;27787;44.594;11.046;2024-02-04T05:14:34;25.73;;;10.82;;
42124;SDS011;27787;44.594;11.046;2024-02-04T05:17:18;24.85;;;11.73;;
42124;SDS011;27787;44.594;11.046;2024-02-04T05:20:02;26.45;;;12.10;;
42124;SDS011;27787;44.594;11.046;2024-02-04T05:22:47;23.33;;;10.63;;
42124;SDS011;27787;44.594;11.046;2024-02-04T05:25:31;27.70;;;12.45;;
42124;SDS011;27787;44.594;11.046;2024-02-04T05:28:16;23.85;;;11.70;;
42124;SDS011;27787;44.594;11.046;2024-02-04T05:31:03;32.85;;;12.20;;
42124;SDS011;27787;44.594;11.046;2024-02-04T05:33:47;27.60;;;12.50;;
42124;SDS011;27787;44.594;11.046;2024-02-04T05:36:31;31.48;;;12.10;;
42124;SDS011;27787;44.594;11.046;2024-02-04T05:39:16;29.48;;;12.13;;
42124;SDS011;27787;44.594;11.046;2024-02-04T05:42:01;29.63;;;12.18;;
42124;SDS011;27787;44.594;11.046;2024-02-04T05:44:45;28.55;;;12.23;;
42124;SDS011;27787;44.594;11.046;2024-02-04T05:47:29;25.05;;;11.27;;
42124;SDS011;27787;44.594;11.046;2024-02-04T05:50:13;25.38;;;12.18;;
42124;SDS011;27787;44.594;11.046;2024-02-04T05:52:58;31.40;;;13.57;;
42124;SDS011;27787;44.594;11.046;2024-02-04T05:55:42;26.67;;;11.55;;
42124;SDS011;27787;44.594;11.046;2024-02-04T05:58:26;24.50;;;11.35;;
42124;SDS011;27787;44.594;11.046;2024-02-04T06:01:10;24.23;;;11.07;;
42124;SDS011;27787;44.594;11.046;2024-02-04T06:03:54;27.33;;;11.63;;
42124;SDS011;27787;44.594;11.046;2024-02-04T06:06:38;31.13;;;12.50;;
42124;SDS011;27787;44.594;11.046;2024-02-04T06:09:22;23.98;;;11.98;;
42124;SDS011;27787;44.594;11.046;2024-02-04T06:12:07;27.42;;;11.73;;
42124;SDS011;27787;44.594;11.046;2024-02-04T06:14:51;21.20;;;10.98;;
42124;SDS011;27787;44.594;11.046;2024-02-04T06:17:35;31.83;;;12.82;;
42124;SDS011;27787;44.594;11.046;2024-02-04T06:20:19;24.75;;;11.93;;
42124;SDS011;27787;44.594;11.046;2024-02-04T06:23:03;24.40;;;11.30;;
42124;SDS011;27787;44.594;11.046;2024-02-04T06:25:48;28.13;;;11.13;;
42124;SDS011;27787;44.594;11.046;2024-02-04T06:28:32;26.42;;;9.57;;
42124;SDS011;27787;44.594;11.046;2024-02-04T06:31:16;22.75;;;9.98;;
42124;SDS011;27787;44.594;11.046;2024-02-04T06:34:00;21.55;;;9.88;;
42124;SDS011;27787;44.594;11.046;2024-02-04T06:36:45;20.73;;;9.60;;
42124;SDS011;27787;44.594;11.046;2024-02-04T06:39:29;24.00;;;9.07;;
42124;SDS011;27787;44.594;11.046;2024-02-04T06:42:13;23.35;;;10.32;;
42124;SDS011;27787;44.594;11.046;2024-02-04T06:44:57;20.75;;;8.85;;
42124;SDS011;27787;44.594;11.046;2024-02-04T06:47:44;22.92;;;9.68;;
42124;SDS011;27787;44.594;11.046;2024-02-04T06:50:28;25.15;;;9.93;;
42124;SDS011;27787;44.594;11.046;2024-02-04T06:53:12;18.15;;;9.20;;
42124;SDS011;27787;44.594;11.046;2024-02-04T06:55:56;23.08;;;9.40;;
42124;SDS011;27787;44.594;11.046;2024-02-04T06:58:41;22.45;;;9.20;;
42124;SDS011;27787;44.594;11.046;2024-02-04T07:01:27;18.80;;;8.82;;
42124;SDS011;27787;44.594;11.046;2024-02-04T07:04:11;21.25;;;8.60;;
42124;SDS011;27787;44.594;11.046;2024-02-04T07:06:55;21.83;;;9.43;;
42124;SDS011;27787;44.594;11.046;2024-02-04T07:09:39;27.90;;;11.32;;
42124;SDS011;27787;44.594;11.046;2024-02-04T07:12:23;25.27;;;11.25;;
42124;SDS011;27787;44.594;11.046;2024-02-04T07:15:07;30.55;;;11.05;;
42124;SDS011;27787;44.594;11.046;2024-02-04T07:17:52;26.73;;;11.23;;
42124;SDS011;27787;44.594;11.046;2024-02-04T07:20:36;27.25;;;12.45;;
42124;SDS011;27787;44.594;11.046;2024-02-04T07:23:20;28.95;;;12.60;;
42124;SDS011;27787;44.594;11.046;2024-02-04T07:26:05;28.85;;;12.52;;
42124;SDS011;27787;44.594;11.046;2024-02-04T07:28:49;25.95;;;12.35;;
42124;SDS011;27787;44.594;11.046;2024-02-04T07:31:33;24.17;;;11.90;;
42124;SDS011;27787;44.594;11.046;2024-02-04T07:34:21;24.48;;;11.90;;
42124;SDS011;27787;44.594;11.046;2024-02-04T07:37:05;25.27;;;11.48;;
42124;SDS011;27787;44.594;11.046;2024-02-04T07:39:50;28.63;;;12.40;;
42124;SDS011;27787;44.594;11.046;2024-02-04T07:42:34;24.58;;;12.63;;
42124;SDS011;27787;44.594;11.046;2024-02-04T07:45:18;27.42;;;11.07;;
42124;SDS011;27787;44.594;11.046;2024-02-04T07:48:02;26.40;;;11.90;;
42124;SDS011;27787;44.594;11.046;2024-02-04T07:50:46;26.42;;;11.35;;
42124;SDS011;27787;44.594;11.046;2024-02-04T07:53:31;28.00;;;12.57;;
42124;SDS011;27787;44.594;11.046;2024-02-04T07:56:15;25.60;;;11.48;;
42124;SDS011;27787;44.594;11.046;2024-02-04T07:58:59;20.27;;;9.98;;
42124;SDS011;27787;44.594;11.046;2024-02-04T08:01:43;24.27;;;10.38;;
42124;SDS011;27787;44.594;11.046;2024-02-04T08:04:27;26.60;;;11.57;;
42124;SDS011;27787;44.594;11.046;2024-02-04T08:07:11;23.20;;;10.75;;
42124;SDS011;27787;44.594;11.046;2024-02-04T08:09:55;22.05;;;11.20;;
42124;SDS011;27787;44.594;11.046;2024-02-04T08:12:40;19.10;;;10.35;;
42124;SDS011;27787;44.594;11.046;2024-02-04T08:15:24;26.00;;;11.07;;
42124;SDS011;27787;44.594;11.046;2024-02-04T08:18:08;23.60;;;11.32;;
42124;SDS011;27787;44.594;11.046;2024-02-04T08:20:52;25.98;;;12.13;;
42124;SDS011;27787;44.594;11.046;2024-02-04T08:23:36;24.20;;;10.63;;
42124;SDS011;27787;44.594;11.046;2024-02-04T08:26:21;27.00;;;11.15;;
42124;SDS011;27787;44.594;11.046;2024-02-04T08:29:05;26.60;;;11.23;;
42124;SDS011;27787;44.594;11.046;2024-02-04T08:31:49;22.95;;;10.68;;
42124;SDS011;27787;44.594;11.046;2024-02-04T08:34:33;24.27;;;11.50;;
42124;SDS011;27787;44.594;11.046;2024-02-04T08:37:17;23.88;;;10.52;;
42124;SDS011;27787;44.594;11.046;2024-02-04T08:40:02;20.25;;;10.35;;
42124;SDS011;27787;44.594;11.046;2024-02-04T08:42:47;20.38;;;10.93;;
42124;SDS011;27787;44.594;11.046;2024-02-04T08:45:30;26.50;;;11.73;;
42124;SDS011;27787;44.594;11.046;2024-02-04T08:48:14;23.45;;;11.35;;
42124;SDS011;27787;44.594;11.046;2024-02-04T08:50:59;29.15;;;12.25;;
42124;SDS011;27787;44.594;11.046;2024-02-04T08:53:43;33.28;;;11.93;;
42124;SDS011;27787;44.594;11.046;2024-02-04T08:56:27;23.15;;;11.45;;
42124;SDS011;27787;44.594;11.046;2024-02-04T08:59:12;24.30;;;12.00;;
42124;SDS011;27787;44.594;11.046;2024-02-04T09:01:55;24.45;;;12.80;;
42124;SDS011;27787;44.594;11.046;2024-02-04T09:04:39;28.35;;;12.38;;
42124;SDS011;27787;44.594;11.046;2024-02-04T09:07:24;23.67;;;12.98;;
42124;SDS011;27787;44.594;11.046;2024-02-04T09:10:09;29.92;;;12.77;;
42124;SDS011;27787;44.594;11.046;2024-02-04T09:12:53;29.23;;;12.77;;
42124;SDS011;27787;44.594;11.046;2024-02-04T09:15:37;26.45;;;12.65;;
42124;SDS011;27787;44.594;11.046;2024-02-04T09:18:21;26.98;;;13.23;;
42124;SDS011;27787;44.594;11.046;2024-02-04T09:21:05;26.80;;;12.45;;
42124;SDS011;27787;44.594;11.046;2024-02-04T09:23:50;25.17;;;12.10;;
42124;SDS011;27787;44.594;11.046;2024-02-04T09:26:34;30.23;;;12.27;;
42124;SDS011;27787;44.594;11.046;2024-02-04T09:29:19;24.42;;;12.80;;
42124;SDS011;27787;44.594;11.046;2024-02-04T09:32:03;28.13;;;12.03;;
42124;SDS011;27787;44.594;11.046;2024-02-04T09:34:48;31.20;;;13.82;;
42124;SDS011;27787;44.594;11.046;2024-02-04T09:37:32;28.60;;;13.88;;
42124;SDS011;27787;44.594;11.046;2024-02-04T09:40:16;25.85;;;13.32;;
42124;SDS011;27787;44.594;11.046;2024-02-04T09:43:01;31.73;;;13.93;;
42124;SDS011;27787;44.594;11.046;2024-02-04T09:45:45;29.63;;;13.32;;
42124;SDS011;27787;44.594;11.046;2024-02-04T09:48:30;29.48;;;14.27;;
42124;SDS011;27787;44.594;11.046;2024-02-04T09:51:16;27.63;;;12.77;;
42124;SDS011;27787;44.594;11.046;2024-02-04T09:54:03;34.25;;;14.75;;
42124;SDS011;27787;44.594;11.046;2024-02-04T09:56:50;35.42;;;15.18;;
42124;SDS011;27787;44.594;11.046;2024-02-04T09:59:35;30.33;;;14.90;;
42124;SDS011;27787;44.594;11.046;2024-02-04T10:02:20;36.13;;;15.23;;
42124;SDS011;27787;44.594;11.046;2024-02-04T10:05:06;38.10;;;15.73;;
42124;SDS011;27787;44.594;11.046;2024-02-04T10:07:52;34.42;;;15.20;;
42124;SDS011;27787;44.594;11.046;2024-02-04T10:10:37;29.73;;;15.57;;
42124;SDS011;27787;44.594;11.046;2024-02-04T10:13:21;40.35;;;16.98;;
42124;SDS011;27787;44.594;11.046;2024-02-04T10:16:06;32.10;;;17.02;;
42124;SDS011;27787;44.594;11.046;2024-02-04T10:18:51;35.07;;;17.27;;
42124;SDS011;27787;44.594;11.046;2024-02-04T10:24:21;37.92;;;17.27;;
42124;SDS011;27787;44.594;11.046;2024-02-04T10:27:05;42.15;;;20.88;;
42124;SDS011;27787;44.594;11.046;2024-02-04T10:29:50;53.42;;;22.75;;
42124;SDS011;27787;44.594;11.046;2024-02-04T10:32:34;48.10;;;22.50;;
42124;SDS011;27787;44.594;11.046;2024-02-04T10:35:21;41.03;;;21.37;;
42124;SDS011;27787;44.594;11.046;2024-02-04T10:38:07;49.22;;;23.02;;
42124;SDS011;27787;44.594;11.046;2024-02-04T10:40:54;45.67;;;22.33;;
42124;SDS011;27787;44.594;11.046;2024-02-04T10:43:38;48.97;;;24.60;;
42124;SDS011;27787;44.594;11.046;2024-02-04T10:46:26;55.88;;;26.90;;
42124;SDS011;27787;44.594;11.046;2024-02-04T10:49:14;53.10;;;26.33;;
42124;SDS011;27787;44.594;11.046;2024-02-04T10:51:59;58.43;;;26.70;;
42124;SDS011;27787;44.594;11.046;2024-02-04T10:54:44;60.53;;;27.53;;
42124;SDS011;27787;44.594;11.046;2024-02-04T10:57:30;56.47;;;27.45;;
42124;SDS011;27787;44.594;11.046;2024-02-04T11:00:14;59.22;;;29.35;;
42124;SDS011;27787;44.594;11.046;2024-02-04T11:03:00;61.25;;;29.65;;
42124;SDS011;27787;44.594;11.046;2024-02-04T11:05:47;56.90;;;28.75;;
42124;SDS011;27787;44.594;11.046;2024-02-04T11:08:34;60.95;;;28.85;;
42124;SDS011;27787;44.594;11.046;2024-02-04T11:11:18;59.90;;;27.80;;
42124;SDS011;27787;44.594;11.046;2024-02-04T11:14:08;57.85;;;25.95;;
42124;SDS011;27787;44.594;11.046;2024-02-04T11:26:07;57.92;;;26.25;;
42124;SDS011;27787;44.594;11.046;2024-02-04T11:28:53;43.17;;;20.98;;
42124;SDS011;27787;44.594;11.046;2024-02-04T11:31:38;41.67;;;20.52;;
42124;SDS011;27787;44.594;11.046;2024-02-04T11:34:25;45.72;;;23.65;;
42124;SDS011;27787;44.594;11.046;2024-02-04T11:37:16;48.45;;;22.48;;
42124;SDS011;27787;44.594;11.046;2024-02-04T11:40:06;43.40;;;20.70;;
42124;SDS011;27787;44.594;11.046;2024-02-04T11:42:50;40.60;;;20.95;;
42124;SDS011;27787;44.594;11.046;2024-02-04T11:45:41;48.72;;;22.70;;
42124;SDS011;27787;44.594;11.046;2024-02-04T11:48:30;48.35;;;22.10;;
42124;SDS011;27787;44.594;11.046;2024-02-04T11:51:16;41.05;;;21.75;;
42124;SDS011;27787;44.594;11.046;2024-02-04T11:54:00;40.25;;;21.35;;
42124;SDS011;27787;44.594;11.046;2024-02-04T11:56:49;53.10;;;24.23;;
42124;SDS011;27787;44.594;11.046;2024-02-04T11:59:42;53.80;;;22.52;;
42124;SDS011;27787;44.594;11.046;2024-02-04T12:02:27;48.60;;;23.55;;
42124;SDS011;27787;44.594;11.046;2024-02-04T12:05:13;48.10;;;22.33;;
42124;SDS011;27787;44.594;11.046;2024-02-04T12:07:57;47.40;;;23.35;;
42124;SDS011;27787;44.594;11.046;2024-02-04T12:10:42;51.10;;;24.77;;
42124;SDS011;27787;44.594;11.046;2024-02-04T12:13:27;49.40;;;23.58;;
42124;SDS011;27787;44.594;11.046;2024-02-04T12:16:12;45.55;;;22.27;;
42124;SDS011;27787;44.594;11.046;2024-02-04T12:18:56;47.13;;;22.98;;
42124;SDS011;27787;44.594;11.046;2024-02-04T12:21:41;47.00;;;23.30;;
42124;SDS011;27787;44.594;11.046;2024-02-04T12:24:25;53.35;;;24.80;;
42124;SDS011;27787;44.594;11.046;2024-02-04T12:27:09;47.38;;;23.70;;
42124;SDS011;27787;44.594;11.046;2024-02-04T12:29:54;44.28;;;22.35;;
42124;SDS011;27787;44.594;11.046;2024-02-04T12:32:38;48.20;;;22.17;;
42124;SDS011;27787;44.594;11.046;2024-02-04T12:35:22;42.40;;;22.27;;
42124;SDS011;27787;44.594;11.046;2024-02-04T12:38:06;45.08;;;23.52;;
42124;SDS011;27787;44.594;11.046;2024-02-04T12:40:51;46.83;;;24.38;;
42124;SDS011;27787;44.594;11.046;2024-02-04T12:43:35;45.67;;;23.83;;
42124;SDS011;27787;44.594;11.046;2024-02-04T12:46:20;46.45;;;23.13;;
42124;SDS011;27787;44.594;11.046;2024-02-04T12:49:05;46.67;;;24.40;;
42124;SDS011;27787;44.594;11.046;2024-02-04T12:51:50;52.20;;;24.85;;
42124;SDS011;27787;44.594;11.046;2024-02-04T12:54:40;50.80;;;23.73;;
42124;SDS011;27787;44.594;11.046;2024-02-04T12:57:26;49.83;;;23.92;;
42124;SDS011;27787;44.594;11.046;2024-02-04T13:00:11;51.60;;;24.90;;
42124;SDS011;27787;44.594;11.046;2024-02-04T13:02:56;52.20;;;23.45;;
42124;SDS011;27787;44.594;11.046;2024-02-04T13:05:41;54.13;;;23.67;;
42124;SDS011;27787;44.594;11.046;2024-02-04T13:08:25;48.15;;;22.83;;
42124;SDS011;27787;44.594;11.046;2024-02-04T13:11:11;51.20;;;22.35;;
42124;SDS011;27787;44.594;11.046;2024-02-04T13:14:03;40.63;;;20.85;;
42124;SDS011;27787;44.594;11.046;2024-02-04T13:16:47;46.53;;;22.63;;
42124;SDS011;27787;44.594;11.046;2024-02-04T13:19:32;47.63;;;23.17;;
42124;SDS011;27787;44.594;11.046;2024-02-04T13:22:18;44.47;;;21.77;;
42124;SDS011;27787;44.594;11.046;2024-02-04T13:25:02;41.42;;;21.02;;
42124;SDS011;27787;44.594;11.046;2024-02-04T13:27:46;40.28;;;20.70;;
42124;SDS011;27787;44.594;11.046;2024-02-04T13:30:30;39.65;;;19.13;;
42124;SDS011;27787;44.594;11.046;2024-02-04T13:33:15;41.53;;;19.98;;
42124;SDS011;27787;44.594;11.046;2024-02-04T13:35:59;38.88;;;20.48;;
42124;SDS011;27787;44.594;11.046;2024-02-04T13:38:43;42.80;;;19.33;;
42124;SDS011;27787;44.594;11.046;2024-02-04T13:41:27;40.92;;;20.42;;
42124;SDS011;27787;44.594;11.046;2024-02-04T13:44:11;37.08;;;20.15;;
42124;SDS011;27787;44.594;11.046;2024-02-04T13:46:55;41.75;;;20.65;;
42124;SDS011;27787;44.594;11.046;2024-02-04T13:49:39;38.70;;;20.83;;
42124;SDS011;27787;44.594;11.046;2024-02-04T13:52:23;40.92;;;19.27;;
42124;SDS011;27787;44.594;11.046;2024-02-04T13:55:08;41.17;;;20.50;;
42124;SDS011;27787;44.594;11.046;2024-02-04T13:57:52;39.47;;;20.05;;
42124;SDS011;27787;44.594;11.046;2024-02-04T14:00:37;32.85;;;18.17;;
42124;SDS011;27787;44.594;11.046;2024-02-04T14:03:21;38.85;;;18.17;;
42124;SDS011;27787;44.594;11.046;2024-02-04T14:06:05;37.38;;;18.45;;
42124;SDS011;27787;44.594;11.046;2024-02-04T14:08:49;36.50;;;18.63;;
42124;SDS011;27787;44.594;11.046;2024-02-04T14:11:33;42.30;;;20.30;;
42124;SDS011;27787;44.594;11.046;2024-02-04T14:14:17;39.60;;;19.20;;
42124;SDS011;27787;44.594;11.046;2024-02-04T14:17:01;39.45;;;18.65;;
42124;SDS011;27787;44.594;11.046;2024-02-04T14:19:46;33.30;;;18.13;;
42124;SDS011;27787;44.594;11.046;2024-02-04T14:22:33;40.80;;;19.15;;
42124;SDS011;27787;44.594;11.046;2024-02-04T14:25:17;37.65;;;19.35;;
42124;SDS011;27787;44.594;11.046;2024-02-04T14:28:01;35.22;;;18.13;;
42124;SDS011;27787;44.594;11.046;2024-02-04T14:30:46;35.63;;;18.35;;
42124;SDS011;27787;44.594;11.046;2024-02-04T14:33:30;35.55;;;18.60;;
42124;SDS011;27787;44.594;11.046;2024-02-04T14:36:14;36.20;;;18.60;;
42124;SDS011;27787;44.594;11.046;2024-02-04T14:38:58;39.45;;;18.52;;
42124;SDS011;27787;44.594;11.046;2024-02-04T14:41:42;32.80;;;17.55;;
42124;SDS011;27787;44.594;11.046;2024-02-04T14:44:27;39.03;;;18.80;;
42124;SDS011;27787;44.594;11.046;2024-02-04T14:47:11;37.28;;;17.88;;
42124;SDS011;27787;44.594;11.046;2024-02-04T14:49:55;36.47;;;19.23;;
42124;SDS011;27787;44.594;11.046;2024-02-04T14:52:39;36.88;;;17.75;;
42124;SDS011;27787;44.594;11.046;2024-02-04T14:55:23;35.42;;;18.75;;
42124;SDS011;27787;44.594;11.046;2024-02-04T14:58:07;33.47;;;17.50;;
42124;SDS011;27787;44.594;11.046;2024-02-04T15:00:52;35.58;;;17.63;;
42124;SDS011;27787;44.594;11.046;2024-02-04T15:03:35;29.63;;;15.75;;
42124;SDS011;27787;44.594;11.046;2024-02-04T15:06:19;34.25;;;18.23;;
42124;SDS011;27787;44.594;11.046;2024-02-04T15:09:04;37.88;;;19.30;;
42124;SDS011;27787;44.594;11.046;2024-02-04T15:11:48;39.35;;;18.92;;
42124;SDS011;27787;44.594;11.046;2024-02-04T15:14:32;36.75;;;19.20;;
42124;SDS011;27787;44.594;11.046;2024-02-04T15:17:17;35.63;;;18.45;;
42124;SDS011;27787;44.594;11.046;2024-02-04T15:20:01;33.72;;;18.92;;
42124;SDS011;27787;44.594;11.046;2024-02-04T15:22:47;40.75;;;19.50;;
42124;SDS011;27787;44.594;11.046;2024-02-04T15:25:31;35.80;;;18.75;;
42124;SDS011;27787;44.594;11.046;2024-02-04T15:28:16;45.72;;;20.45;;
42124;SDS011;27787;44.594;11.046;2024-02-04T15:31:00;37.15;;;19.75;;
42124;SDS011;27787;44.594;11.046;2024-02-04T15:33:45;38.40;;;20.13;;
42124;SDS011;27787;44.594;11.046;2024-02-04T15:36:31;42.80;;;20.25;;
42124;SDS011;27787;44.594;11.046;2024-02-04T15:39:16;36.85;;;19.50;;
42124;SDS011;27787;44.594;11.046;2024-02-04T15:42:01;44.85;;;21.42;;
42124;SDS011;27787;44.594;11.046;2024-02-04T15:44:45;35.97;;;20.10;;
42124;SDS011;27787;44.594;11.046;2024-02-04T15:47:30;36.75;;;19.85;;
42124;SDS011;27787;44.594;11.046;2024-02-04T15:50:16;35.50;;;18.80;;
42124;SDS011;27787;44.594;11.046;2024-02-04T15:53:01;38.20;;;19.65;;
42124;SDS011;27787;44.594;11.046;2024-02-04T15:55:45;43.63;;;20.17;;
42124;SDS011;27787;44.594;11.046;2024-02-04T15:58:29;40.22;;;22.15;;
42124;SDS011;27787;44.594;11.046;2024-02-04T16:01:15;48.25;;;23.33;;
42124;SDS011;27787;44.594;11.046;2024-02-04T16:04:04;51.47;;;22.58;;
42124;SDS011;27787;44.594;11.046;2024-02-04T16:06:50;43.60;;;20.48;;
42124;SDS011;27787;44.594;11.046;2024-02-04T16:09:34;45.22;;;22.05;;
42124;SDS011;27787;44.594;11.046;2024-02-04T16:12:21;43.83;;;22.92;;